Portersville, PA (16051)

5:48 AM EDT on April 24, 2017 (GMT -0400)
Shenango Twp - Pier 23 | | Change Station

Elev 1312 ft 40.94 °N, 80.29 °W | Updated 9 minutes ago

Clear
Clear
44.6 °F
Feels Like 45 °F
N
0.0
Wind Variable Wind from SSE

Today
High -- | Low -- °F
--% Chance of Precip.
Yesterday
High -- | Low -- °F
Precip. -- in
Pressure 30.04 in
Visibility 10.0 miles
Clouds Clear
Windchill 45 °F
Dew Point 36 °F
Humidity 71%
Rainfall 0.00 in
Snow Depth Not available.
6:27 AM 8:10 PM
Waning Crescent, 6% visible
METAR KBTP 240935Z AUTO 05005KT 10SM CLR 04/01 A3004 RMK AO1
Pressure 30.04 in
Visibility 10.0 miles
Clouds Clear
Windchill 45 °F
Dew Point 36 °F
Humidity 71%
Rainfall 0.00 in
Snow Depth Not available.
6:27 AM 8:10 PM
Waning Crescent, 6% visible
METAR KBTP 240935Z AUTO 05005KT 10SM CLR 04/01 A3004 RMK AO1

Get Severe Weather Alerts

Thanks for signing up!

Be on the lookout for a verification email in your inbox.

You'll start receiving the daily forecast at 8 AM.

×

10-Day Weather Forecast

Almanac

Astronomy

Apr. 24, 2017 Rise Set
Actual Time
Civil Twilight
Nautical Twilight
Astronomical Twilight
Moon
Length of Visible Light
Length of Day
Tomorrow will be .
, % of the Moon is Illuminated

Today's Extremes

State Highs State Lows

Community

WunderPhotos

WunderBlog® & News

Nearby

Air Quality

  Air Quality AQ Index Pollutant
Not available.

Snow Depth

Station Depth Elevation

Earthquake Activity

City Distance Mag. Time & Date
Minimum magnitude displayed is 2.5.

Coastal Water Temperatures

Place Temperature

Stations

Nearby Weather Stations

Station Location Temp. Windchill Dew Point Humidity Wind Precip. Elev Updated Type
                   

Watches & Warnings

There are currently no watches in effect.